SCK weather

Stockton Metropolitan Airport
Stockton, California, United States

Public forecast

Using degrees Fahrenheit for public forecast. Weather courtesy of forecast.io.

Current aviation weather report (METAR) for Stockton Metropolitan Airport

Retrieved 2020/02/26 03:55 UTC (15 minutes ago):

KSCK 260355Z 10003KT 10SM CLR 15/03 A3025 RMK AO2 SLP243 T01500028

Aviation forecast (TAF) for Stockton Metropolitan Airport

Retrieved 2020-02-26 00:22 UTC (4 hours ago):

TAF KSCK 252320Z 2600/2624 VRB04KT P6SM SKC